createdAt,value
2022-08-19T04:00:45.375Z,100195.00
2022-08-19T04:03:13.493Z,100199.00
2022-08-19T04:05:41.617Z,100208.00
2022-08-19T04:08:13.673Z,100207.00
2022-08-19T04:10:42.788Z,100204.00
2022-08-19T04:13:10.917Z,100213.00
2022-08-19T04:15:42.960Z,100201.00
2022-08-19T04:18:12.982Z,100210.00
2022-08-19T04:20:44.411Z,100204.00
2022-08-19T04:23:13.101Z,100216.00
2022-08-19T04:25:44.165Z,100220.00
2022-08-19T04:28:15.101Z,100210.00
2022-08-19T04:30:46.800Z,100209.00
2022-08-19T04:33:28.552Z,100210.00
2022-08-19T04:35:59.105Z,100212.00
2022-08-19T04:38:27.212Z,100211.00
2022-08-19T04:41:13.127Z,100211.00
2022-08-19T04:43:41.301Z,100220.00
2022-08-19T04:46:11.687Z,100217.00
2022-08-19T04:48:58.706Z,100216.00
2022-08-19T04:51:26.840Z,100216.00
2022-08-19T04:53:55.515Z,100192.00
2022-08-19T04:56:23.621Z,100200.00
2022-08-19T04:58:52.885Z,100198.00
2022-08-19T05:01:24.419Z,100203.00
2022-08-19T05:03:53.688Z,100206.00
2022-08-19T05:06:26.314Z,100199.00
2022-08-19T05:08:54.501Z,100203.00
2022-08-19T05:11:27.083Z,100215.00
2022-08-19T05:13:55.875Z,100204.00
2022-08-19T05:16:27.733Z,100187.00
2022-08-19T05:19:14.545Z,100187.00
2022-08-19T05:22:02.684Z,100183.00
2022-08-19T05:24:32.062Z,100185.00
2022-08-19T05:27:00.256Z,100181.00
2022-08-19T05:29:33.429Z,100181.00
2022-08-19T05:32:09.213Z,100181.00
2022-08-19T05:34:39.066Z,100179.00
2022-08-19T05:37:09.783Z,100177.00
2022-08-19T05:39:39.798Z,100186.00
2022-08-19T05:42:11.269Z,100183.00
2022-08-19T05:44:44.860Z,100186.00
2022-08-19T05:47:15.733Z,100188.00
2022-08-19T05:49:44.952Z,100194.00
2022-08-19T05:52:18.902Z,100200.00
2022-08-19T05:54:51.091Z,100200.00
2022-08-19T05:57:20.443Z,100206.00
2022-08-19T05:59:50.942Z,100205.00
2022-08-19T06:02:21.598Z,100204.00
2022-08-19T06:04:50.497Z,100206.00
2022-08-19T06:07:20.375Z,100212.00
2022-08-19T06:09:58.973Z,100216.00
2022-08-19T06:12:31.553Z,100220.00
2022-08-19T06:15:01.366Z,100219.00
2022-08-19T06:17:31.256Z,100217.00
2022-08-19T06:20:00.314Z,100213.00
2022-08-19T06:22:30.858Z,100219.00
2022-08-19T06:24:58.987Z,100222.00
2022-08-19T06:27:27.028Z,100213.00
2022-08-19T06:29:55.078Z,100208.00
2022-08-19T06:32:23.073Z,100208.00
2022-08-19T06:34:51.162Z,100202.00
2022-08-19T06:37:19.220Z,100212.00
2022-08-19T06:39:48.765Z,100211.00
2022-08-19T06:42:19.519Z,100233.00
2022-08-19T06:44:53.545Z,100235.00
2022-08-19T06:47:28.586Z,100222.00
2022-08-19T06:50:01.166Z,100235.00
2022-08-19T06:52:29.831Z,100239.00
2022-08-19T06:54:59.752Z,100246.00
2022-08-19T06:57:33.536Z,100242.00
2022-08-19T07:00:02.044Z,100254.00
2022-08-19T07:02:30.515Z,100262.00
2022-08-19T07:04:59.260Z,100270.00
2022-08-19T07:07:27.609Z,100259.00
2022-08-19T07:09:59.318Z,100257.00
2022-08-19T07:12:35.636Z,100251.00
2022-08-19T07:15:05.021Z,100254.00
2022-08-19T07:17:34.609Z,100248.00
2022-08-19T07:20:06.753Z,100241.00
2022-08-19T07:22:38.539Z,100256.00
2022-08-19T07:25:10.084Z,100257.00
2022-08-19T07:27:39.992Z,100252.00
2022-08-19T07:30:12.911Z,100261.00
2022-08-19T07:32:41.324Z,100272.00
2022-08-19T07:35:11.013Z,100281.00
2022-08-19T07:37:40.512Z,100284.00
2022-08-19T07:40:10.381Z,100288.00
2022-08-19T07:42:39.996Z,100288.00
2022-08-19T07:45:10.454Z,100288.00
2022-08-19T07:47:48.139Z,100286.00
2022-08-19T07:50:21.317Z,100288.00
2022-08-19T07:52:50.805Z,100295.00
2022-08-19T07:55:42.296Z,100291.00
2022-08-19T07:58:17.478Z,100288.00
2022-08-19T08:00:48.562Z,100291.00
2022-08-19T08:03:20.544Z,100304.00
2022-08-19T08:06:06.707Z,100288.00
2022-08-19T08:08:52.760Z,100313.00
2022-08-19T08:11:23.961Z,100310.00
2022-08-19T08:14:01.347Z,100321.00
2022-08-19T08:16:39.688Z,100325.00
2022-08-19T08:19:25.753Z,100333.00
2022-08-19T08:21:55.757Z,100332.00
2022-08-19T08:24:28.286Z,100322.00
2022-08-19T08:26:58.428Z,100334.00
2022-08-19T08:29:34.766Z,100339.00
2022-08-19T08:32:04.399Z,100331.00
2022-08-19T08:34:42.407Z,100322.00
2022-08-19T08:37:10.592Z,100336.00
2022-08-19T08:39:39.002Z,100331.00
2022-08-19T08:42:19.072Z,100325.00
2022-08-19T08:45:00.161Z,100332.00
2022-08-19T08:47:36.941Z,100333.00
2022-08-19T08:50:13.303Z,100335.00
2022-08-19T08:52:47.707Z,100326.00
2022-08-19T08:55:20.493Z,100324.00
2022-08-19T08:57:57.344Z,100335.00
2022-08-19T09:00:31.393Z,100335.00
2022-08-19T09:03:02.315Z,100337.00
2022-08-19T09:05:48.646Z,100340.00
2022-08-19T09:08:30.198Z,100335.00
2022-08-19T09:10:59.359Z,100337.00
2022-08-19T09:13:37.677Z,100335.00
2022-08-19T09:16:12.352Z,100346.00
2022-08-19T09:18:43.999Z,100346.00
2022-08-19T09:21:12.605Z,100335.00
2022-08-19T09:23:40.744Z,100326.00
2022-08-19T09:26:14.367Z,100332.00
2022-08-19T09:28:48.674Z,100326.00
2022-08-19T09:31:22.302Z,100323.00
2022-08-19T09:33:52.371Z,100336.00
2022-08-19T09:36:33.743Z,100335.00
2022-08-19T09:39:04.602Z,100335.00
2022-08-19T09:41:47.664Z,100334.00
2022-08-19T09:44:18.231Z,100331.00
2022-08-19T09:46:48.933Z,100332.00
2022-08-19T09:49:19.024Z,100334.00
2022-08-19T09:51:51.225Z,100326.00
2022-08-19T09:54:23.469Z,100323.00
2022-08-19T09:56:52.710Z,100321.00
2022-08-19T09:59:21.346Z,100309.00
2022-08-19T10:01:51.333Z,100311.00
2022-08-19T10:04:20.399Z,100317.00
2022-08-19T10:06:53.624Z,100310.00
2022-08-19T10:09:33.989Z,100295.00
2022-08-19T10:12:04.812Z,100311.00
2022-08-19T10:14:34.785Z,100312.00
2022-08-19T10:17:19.138Z,100313.00
2022-08-19T10:19:55.113Z,100305.00
2022-08-19T10:22:25.688Z,100308.00
2022-08-19T10:24:54.576Z,100313.00
2022-08-19T10:27:22.811Z,100301.00
2022-08-19T10:29:50.920Z,100321.00
2022-08-19T10:32:33.706Z,100314.00
2022-08-19T10:35:02.766Z,100314.00
2022-08-19T10:37:33.869Z,100304.00
2022-08-19T10:40:04.325Z,100302.00
2022-08-19T10:42:33.249Z,100308.00
2022-08-19T10:45:01.462Z,100305.00
2022-08-19T10:47:31.764Z,100308.00
2022-08-19T10:50:17.612Z,100314.00
2022-08-19T10:52:50.354Z,100304.00
2022-08-19T10:55:40.113Z,100303.00
2022-08-19T10:58:14.380Z,100304.00
2022-08-19T11:00:44.215Z,100314.00
2022-08-19T11:03:13.702Z,100313.00
2022-08-19T11:05:42.253Z,100315.00
2022-08-19T11:08:22.142Z,100332.00
2022-08-19T11:10:54.421Z,100299.00
2022-08-19T11:13:22.994Z,100323.00
2022-08-19T11:16:03.987Z,100321.00
2022-08-19T11:18:38.319Z,100315.00
2022-08-19T11:21:17.890Z,100321.00
2022-08-19T11:23:48.653Z,100338.00
2022-08-19T11:26:18.054Z,100336.00
2022-08-19T11:28:46.268Z,100333.00
2022-08-19T11:31:18.447Z,100337.00
2022-08-19T11:33:51.634Z,100331.00
2022-08-19T11:36:21.477Z,100335.00
2022-08-19T11:38:50.788Z,100330.00
2022-08-19T11:41:21.997Z,100325.00
2022-08-19T11:43:50.607Z,100338.00
2022-08-19T11:46:19.519Z,100341.00
2022-08-19T11:48:50.668Z,100344.00
2022-08-19T11:51:22.669Z,100336.00
2022-08-19T11:53:51.316Z,100349.00
2022-08-19T11:56:20.824Z,100351.00
2022-08-19T11:58:49.439Z,100350.00
2022-08-19T12:01:21.276Z,100349.00
2022-08-19T12:03:53.311Z,100358.00
2022-08-19T12:06:26.547Z,100364.00
2022-08-19T12:08:54.910Z,100361.00
2022-08-19T12:11:23.628Z,100371.00
2022-08-19T12:13:52.106Z,100361.00
2022-08-19T12:16:24.919Z,100372.00
2022-08-19T12:18:55.159Z,100374.00
2022-08-19T12:21:28.840Z,100374.00
2022-08-19T12:24:00.048Z,100371.00
2022-08-19T12:26:32.404Z,100364.00
2022-08-19T12:29:01.960Z,100368.00
2022-08-19T12:31:31.162Z,100375.00
2022-08-19T12:34:03.471Z,100365.00
2022-08-19T12:36:31.583Z,100381.00
2022-08-19T12:39:01.698Z,100378.00
2022-08-19T12:41:29.836Z,100383.00
2022-08-19T12:43:59.741Z,100378.00
2022-08-19T12:46:29.076Z,100374.00
2022-08-19T12:49:00.709Z,100361.00
2022-08-19T12:51:33.380Z,100368.00
2022-08-19T12:54:02.454Z,100368.00
2022-08-19T12:56:30.951Z,100373.00
2022-08-19T12:58:59.045Z,100384.00
2022-08-19T13:01:27.157Z,100380.00
2022-08-19T13:03:55.358Z,100388.00
2022-08-19T13:06:24.837Z,100393.00
2022-08-19T13:08:59.041Z,100394.00
2022-08-19T13:11:27.759Z,100396.00
2022-08-19T13:13:56.923Z,100391.00
2022-08-19T13:16:25.000Z,100392.00
2022-08-19T13:18:53.785Z,100394.00
2022-08-19T13:21:28.097Z,100383.00
2022-08-19T13:23:56.573Z,100393.00
2022-08-19T13:26:25.545Z,100385.00
2022-08-19T13:29:11.221Z,100382.00
2022-08-19T13:32:01.207Z,100387.00
2022-08-19T13:34:35.955Z,100391.00
2022-08-19T13:37:06.989Z,100380.00
2022-08-19T13:39:37.157Z,100381.00
2022-08-19T13:42:08.140Z,100376.00
2022-08-19T13:44:36.397Z,100382.00
2022-08-19T13:47:07.939Z,100384.00
2022-08-19T13:49:37.834Z,100390.00
2022-08-19T13:52:08.183Z,100386.00
2022-08-19T13:54:36.321Z,100378.00
2022-08-19T13:57:04.577Z,100385.00
2022-08-19T13:59:33.809Z,100386.00
2022-08-19T14:02:02.888Z,100377.00
2022-08-19T14:04:31.017Z,100378.00
2022-08-19T14:06:59.065Z,100376.00
2022-08-19T14:09:28.631Z,100375.00
2022-08-19T14:11:56.649Z,100370.00
2022-08-19T14:14:24.674Z,100379.00
2022-08-19T14:16:53.838Z,100372.00
2022-08-19T14:19:22.308Z,100372.00
2022-08-19T14:21:51.619Z,100379.00
2022-08-19T14:24:19.799Z,100374.00
2022-08-19T14:26:49.791Z,100375.00
2022-08-19T14:29:18.440Z,100376.00
2022-08-19T14:31:46.812Z,100371.00
2022-08-19T14:34:14.886Z,100383.00
2022-08-19T14:36:43.119Z,100384.00
2022-08-19T14:39:11.369Z,100374.00
2022-08-19T14:41:42.974Z,100374.00
2022-08-19T14:44:13.440Z,100375.00
2022-08-19T14:46:42.137Z,100378.00
2022-08-19T14:49:17.649Z,100374.00
2022-08-19T14:51:47.760Z,100378.00
2022-08-19T14:54:15.856Z,100388.00
2022-08-19T14:56:44.308Z,100383.00
2022-08-19T14:59:13.896Z,100387.00
2022-08-19T15:01:42.242Z,100396.00
2022-08-19T15:04:10.606Z,100399.00
2022-08-19T15:06:38.988Z,100395.00
2022-08-19T15:09:07.524Z,100404.00
2022-08-19T15:11:35.604Z,100408.00
2022-08-19T15:14:03.812Z,100412.00
2022-08-19T15:16:33.980Z,100415.00
2022-08-19T15:19:02.561Z,100417.00
2022-08-19T15:21:32.021Z,100418.00
2022-08-19T15:24:01.545Z,100420.00
2022-08-19T15:26:33.273Z,100430.00
2022-08-19T15:29:02.575Z,100412.00
2022-08-19T15:31:35.379Z,100418.00
2022-08-19T15:34:06.753Z,100434.00
2022-08-19T15:36:36.070Z,100415.00
2022-08-19T15:39:06.463Z,100430.00
2022-08-19T15:41:34.814Z,100418.00
2022-08-19T15:44:09.493Z,100423.00
2022-08-19T15:46:42.129Z,100413.00
2022-08-19T15:49:12.793Z,100410.00
2022-08-19T15:51:43.395Z,100408.00
2022-08-19T15:54:21.532Z,100405.00
2022-08-19T15:57:08.903Z,100408.00
2022-08-19T15:59:56.937Z,100417.00
2022-08-19T16:02:48.041Z,100422.00
2022-08-19T16:05:46.990Z,100426.00
2022-08-19T16:08:15.458Z,100423.00
2022-08-19T16:10:43.569Z,100413.00
2022-08-19T16:13:11.831Z,100406.00
2022-08-19T16:15:44.645Z,100399.00
2022-08-19T16:18:14.294Z,100406.00
2022-08-19T16:20:42.576Z,100413.00
2022-08-19T16:23:11.089Z,100401.00
2022-08-19T16:25:39.353Z,100411.00
2022-08-19T16:28:09.613Z,100421.00
2022-08-19T16:30:40.702Z,100420.00
2022-08-19T16:33:10.476Z,100420.00
2022-08-19T16:35:40.283Z,100421.00
2022-08-19T16:38:08.371Z,100415.00
2022-08-19T16:40:36.988Z,100422.00
2022-08-19T16:43:05.703Z,100420.00
2022-08-19T16:45:33.811Z,100407.00
2022-08-19T16:48:01.941Z,100413.00
2022-08-19T16:50:48.219Z,100422.00
2022-08-19T16:53:22.908Z,100421.00
2022-08-19T16:55:53.337Z,100418.00
2022-08-19T16:58:29.117Z,100412.00
2022-08-19T17:01:03.723Z,100428.00
2022-08-19T17:03:36.281Z,100434.00
2022-08-19T17:06:18.976Z,100420.00
2022-08-19T17:08:52.477Z,100427.00
2022-08-19T17:11:22.146Z,100427.00
2022-08-19T17:13:51.845Z,100419.00
2022-08-19T17:16:24.826Z,100407.00
2022-08-19T17:18:53.254Z,100424.00
2022-08-19T17:21:23.229Z,100399.00
2022-08-19T17:23:52.917Z,100431.00
2022-08-19T17:26:21.025Z,100428.00
2022-08-19T17:28:52.120Z,100408.00
2022-08-19T17:31:23.939Z,100425.00
2022-08-19T17:33:53.109Z,100429.00
2022-08-19T17:36:25.431Z,100436.00
2022-08-19T17:38:56.971Z,100434.00
2022-08-19T17:41:27.006Z,100437.00
2022-08-19T17:43:55.643Z,100449.00
2022-08-19T17:46:23.693Z,100439.00
2022-08-19T17:48:57.143Z,100436.00
2022-08-19T17:51:41.977Z,100436.00
2022-08-19T17:54:15.240Z,100436.00
2022-08-19T17:56:45.187Z,100458.00
2022-08-19T17:59:15.228Z,100460.00
2022-08-19T18:01:53.275Z,100452.00
2022-08-19T18:04:24.714Z,100457.00
2022-08-19T18:06:55.159Z,100472.00
2022-08-19T18:09:41.480Z,100465.00
2022-08-19T18:12:14.161Z,100473.00
2022-08-19T18:14:43.574Z,100466.00
2022-08-19T18:17:17.274Z,100456.00
2022-08-19T18:19:47.921Z,100467.00
2022-08-19T18:22:27.156Z,100462.00
2022-08-19T18:24:58.070Z,100460.00
2022-08-19T18:27:28.029Z,100472.00
2022-08-19T18:29:59.042Z,100466.00
2022-08-19T18:32:28.996Z,100476.00
2022-08-19T18:34:57.076Z,100478.00
2022-08-19T18:37:26.848Z,100495.00
2022-08-19T18:40:14.094Z,100481.00
2022-08-19T18:43:18.634Z,100498.00
2022-08-19T18:46:07.235Z,100488.00
2022-08-19T18:48:53.404Z,100500.00
2022-08-19T18:51:25.281Z,100492.00
2022-08-19T18:53:58.668Z,100508.00
2022-08-19T18:56:32.175Z,100506.00
2022-08-19T18:59:01.133Z,100511.00
2022-08-19T19:01:33.854Z,100508.00
2022-08-19T19:04:10.557Z,100513.00
2022-08-19T19:06:41.410Z,100524.00
2022-08-19T19:09:11.501Z,100520.00
2022-08-19T19:11:45.040Z,100541.00
2022-08-19T19:14:47.603Z,100529.00
2022-08-19T19:17:15.995Z,100548.00
2022-08-19T19:19:45.015Z,100544.00
2022-08-19T19:22:18.081Z,100532.00
2022-08-19T19:24:46.244Z,100543.00
2022-08-19T19:27:20.199Z,100546.00
2022-08-19T19:29:52.352Z,100545.00
2022-08-19T19:32:26.071Z,100539.00
2022-08-19T19:34:55.012Z,100548.00
2022-08-19T19:37:23.553Z,100557.00
2022-08-19T19:39:52.431Z,100548.00
2022-08-19T19:42:24.166Z,100561.00
2022-08-19T19:44:56.230Z,100564.00
2022-08-19T19:47:28.114Z,100567.00
2022-08-19T19:50:15.987Z,100560.00
2022-08-19T19:52:46.645Z,100571.00
2022-08-19T19:55:18.448Z,100558.00
2022-08-19T19:57:50.417Z,100560.00
2022-08-19T20:00:19.447Z,100552.00
2022-08-19T20:02:50.323Z,100553.00
2022-08-19T20:05:21.501Z,100554.00
2022-08-19T20:08:08.603Z,100557.00
2022-08-19T20:10:37.151Z,100563.00
2022-08-19T20:13:08.551Z,100566.00
2022-08-19T20:15:43.359Z,100572.00
2022-08-19T20:18:14.229Z,100567.00
2022-08-19T20:20:44.632Z,100566.00
2022-08-19T20:23:13.348Z,100554.00
2022-08-19T20:25:44.053Z,100563.00
2022-08-19T20:28:13.713Z,100532.00
2022-08-19T20:30:46.523Z,100554.00
2022-08-19T20:33:16.239Z,100544.00
2022-08-19T20:35:46.196Z,100546.00
2022-08-19T20:38:14.591Z,100544.00
2022-08-19T20:40:42.842Z,100543.00
2022-08-19T20:43:14.971Z,100545.00
2022-08-19T20:45:43.080Z,100546.00
2022-08-19T20:48:12.349Z,100536.00
2022-08-19T20:50:40.767Z,100540.00
2022-08-19T20:53:15.072Z,100543.00
2022-08-19T20:55:46.787Z,100543.00
2022-08-19T20:58:17.417Z,100508.00
